Time;durP1;ratioP1;P1;durP2;ratioP2;P2;SDS_P1;SDS_P2;PMS_P1;PMS_P2;Temp;Humidity;BMP_temperature;BMP_pressure;BME280_temperature;BME280_humidity;BME280_pressure;Samples;Min_cycle;Max_cycle;Signal;HPM_P1;HPM_P2
2021/05/04 00:01:27;;;;;;;8.98;2.20;;;11.90;48.20;;;;;;5032047;28;20404;-77
2021/05/04 00:03:52;;;;;;;5.07;3.13;;;11.90;48.20;;;;;;5012919;28;20062;-78
2021/05/04 00:06:18;;;;;;;5.72;3.30;;;11.90;48.00;;;;;;5017171;28;20491;-78
2021/05/04 00:08:43;;;;;;;5.55;2.47;;;11.80;48.00;;;;;;5015115;28;20392;-78
2021/05/04 00:11:09;;;;;;;3.80;2.92;;;11.90;48.00;;;;;;5042750;28;20040;-77
2021/05/04 00:13:34;;;;;;;3.67;2.13;;;11.90;48.20;;;;;;5015113;28;20040;-78
2021/05/04 00:16:00;;;;;;;3.15;2.20;;;11.90;48.30;;;;;;5025281;28;20378;-77
2021/05/04 00:18:25;;;;;;;4.57;2.13;;;11.90;48.20;;;;;;5038151;28;20070;-78
2021/05/04 00:20:51;;;;;;;5.05;2.50;;;11.90;48.20;;;;;;5040869;28;20029;-77
2021/05/04 00:23:16;;;;;;;5.30;2.58;;;11.90;48.20;;;;;;5022235;28;20519;-78
2021/05/04 00:25:42;;;;;;;3.15;1.80;;;11.90;48.00;;;;;;5029341;28;20045;-78
2021/05/04 00:28:07;;;;;;;2.95;2.42;;;11.90;48.20;;;;;;5024157;28;20021;-78
2021/05/04 00:30:33;;;;;;;6.50;2.58;;;11.90;48.20;;;;;;5030644;28;20021;-78
2021/05/04 00:32:59;;;;;;;1.65;1.55;;;11.90;48.30;;;;;;5030587;28;20052;-78
2021/05/04 00:35:25;;;;;;;4.82;2.40;;;11.90;48.30;;;;;;5023519;28;20423;-78
2021/05/04 00:37:50;;;;;;;3.70;1.75;;;11.90;48.30;;;;;;5032461;28;20113;-78
2021/05/04 00:40:16;;;;;;;2.85;1.70;;;11.90;48.20;;;;;;5000809;28;20037;-78
2021/05/04 00:42:42;;;;;;;2.13;1.90;;;11.90;48.20;;;;;;5025285;28;20041;-78
2021/05/04 00:45:08;;;;;;;2.97;1.45;;;11.90;48.40;;;;;;5030619;28;20063;-77
2021/05/04 00:47:33;;;;;;;3.22;2.85;;;11.90;48.30;;;;;;5029440;28;20036;-78
2021/05/04 00:49:59;;;;;;;4.32;2.47;;;11.90;48.30;;;;;;5025900;28;20078;-78
2021/05/04 00:52:24;;;;;;;5.47;1.90;;;11.90;48.20;;;;;;5013300;28;20265;-78
2021/05/04 00:54:50;;;;;;;3.10;1.85;;;11.90;48.30;;;;;;5023030;28;20021;-77
2021/05/04 00:57:16;;;;;;;3.70;1.85;;;11.90;48.40;;;;;;5014692;28;20547;-78
2021/05/04 00:59:42;;;;;;;2.95;1.75;;;11.90;48.20;;;;;;5024876;28;20085;-78
2021/05/04 01:02:07;;;;;;;3.42;2.30;;;11.90;48.30;;;;;;5010315;28;20112;-78
2021/05/04 01:04:33;;;;;;;4.30;1.80;;;11.90;48.30;;;;;;5026479;28;20528;-79
2021/05/04 01:07:00;;;;;;;7.45;2.17;;;12.00;48.40;;;;;;5014122;28;20419;-78
2021/05/04 01:09:25;;;;;;;2.28;1.50;;;12.00;48.30;;;;;;5013250;28;20066;-78
2021/05/04 01:11:51;;;;;;;1.65;1.50;;;12.00;48.30;;;;;;5009212;28;20021;-78
2021/05/04 01:14:17;;;;;;;2.13;1.92;;;11.90;48.20;;;;;;5009140;28;20025;-78
2021/05/04 01:16:54;;;;;;;2.90;1.88;;;12.00;48.30;;;;;;5042633;28;20448;-78
2021/05/04 01:19:20;;;;;;;2.22;1.27;;;11.90;48.30;;;;;;5017333;28;20488;-77
2021/05/04 01:21:45;;;;;;;3.70;2.17;;;12.00;48.20;;;;;;5030394;28;20039;-78
2021/05/04 01:24:11;;;;;;;3.00;1.60;;;12.00;48.20;;;;;;5041352;28;20028;-78
2021/05/04 01:26:40;;;;;;;4.03;1.50;;;12.00;48.40;;;;;;5030423;28;20047;-78
2021/05/04 01:29:05;;;;;;;8.30;2.90;;;12.00;48.30;;;;;;5013292;28;20452;-78
2021/05/04 01:31:31;;;;;;;1.92;1.60;;;12.00;48.50;;;;;;5019897;28;20037;-77
2021/05/04 01:33:57;;;;;;;6.63;2.05;;;12.00;48.40;;;;;;5030400;28;20025;-78
2021/05/04 01:36:23;;;;;;;4.07;1.35;;;12.00;48.40;;;;;;5016409;28;20044;-78
2021/05/04 01:38:48;;;;;;;3.50;1.52;;;12.00;48.40;;;;;;5026827;28;20553;-78
2021/05/04 01:41:14;;;;;;;5.80;1.38;;;12.10;48.30;;;;;;5021225;28;20491;-79
2021/05/04 01:43:39;;;;;;;1.85;1.52;;;12.10;48.30;;;;;;5023835;28;20059;-78
2021/05/04 01:46:05;;;;;;;1.60;1.17;;;12.10;48.50;;;;;;5043416;28;20384;-78
2021/05/04 01:48:30;;;;;;;1.30;1.08;;;12.10;48.50;;;;;;5025177;28;20036;-78
2021/05/04 01:50:56;;;;;;;2.60;1.25;;;12.10;48.40;;;;;;5013308;28;20033;-78
2021/05/04 01:53:21;;;;;;;3.97;1.63;;;12.10;48.50;;;;;;5025176;28;20032;-77
2021/05/04 01:55:47;;;;;;;2.10;1.67;;;12.10;48.50;;;;;;5029444;28;20487;-78
2021/05/04 01:58:13;;;;;;;2.10;1.30;;;12.10;48.60;;;;;;5031908;28;20063;-78
2021/05/04 02:00:38;;;;;;;3.20;1.30;;;12.10;48.50;;;;;;5036524;28;20361;-78
2021/05/04 02:03:13;;;;;;;3.58;1.73;;;12.10;48.70;;;;;;5010014;28;20088;-78
2021/05/04 02:05:38;;;;;;;12.40;1.88;;;12.10;48.60;;;;;;5023055;28;20028;-79
2021/05/04 02:08:04;;;;;;;2.35;1.65;;;12.10;48.60;;;;;;5003261;28;20051;-78
2021/05/04 02:10:30;;;;;;;1.67;1.30;;;12.10;48.50;;;;;;5028769;28;20446;-77
2021/05/04 02:12:55;;;;;;;6.10;1.60;;;12.10;48.50;;;;;;5021724;28;20044;-77
2021/05/04 02:15:21;;;;;;;2.22;1.65;;;12.20;48.60;;;;;;5023936;28;20177;-78
2021/05/04 02:17:46;;;;;;;4.57;1.40;;;12.10;49.50;;;;;;5022515;28;20108;-77
2021/05/04 02:20:12;;;;;;;1.70;1.15;;;12.00;50.30;;;;;;5004053;28;20145;-77
2021/05/04 02:22:38;;;;;;;1.10;1.00;;;12.00;50.80;;;;;;5012594;28;20028;-77
2021/05/04 02:25:04;;;;;;;2.13;0.90;;;12.00;51.10;;;;;;5023569;28;20481;-77
2021/05/04 02:27:30;;;;;;;3.05;1.30;;;11.90;51.10;;;;;;5009373;28;20024;-77
2021/05/04 02:29:55;;;;;;;2.50;0.90;;;11.80;51.70;;;;;;5012835;28;20568;-79
2021/05/04 02:32:21;;;;;;;3.63;1.20;;;11.80;53.30;;;;;;5013014;28;20557;-79
2021/05/04 02:34:46;;;;;;;2.47;1.30;;;11.70;54.30;;;;;;5022634;28;20155;-79
2021/05/04 02:37:12;;;;;;;2.83;1.42;;;11.60;56.40;;;;;;5026884;28;20016;-79
2021/05/04 02:39:37;;;;;;;17.20;2.35;;;11.40;57.60;;;;;;5025566;28;20024;-79
2021/05/04 02:42:03;;;;;;;3.63;1.20;;;11.30;58.80;;;;;;5040813;28;20025;-79
2021/05/04 02:44:29;;;;;;;4.82;1.23;;;11.20;59.80;;;;;;5022136;28;20490;-79
2021/05/04 02:46:54;;;;;;;5.93;1.60;;;11.00;60.90;;;;;;5014131;28;20028;-79
2021/05/04 02:49:20;;;;;;;4.68;1.70;;;10.70;62.90;;;;;;5014319;28;20056;-80
2021/05/04 02:51:45;;;;;;;2.85;1.08;;;10.60;63.80;;;;;;5013619;28;20043;-80
2021/05/04 02:54:11;;;;;;;5.10;1.02;;;10.50;64.50;;;;;;5040855;28;20029;-81
2021/05/04 02:56:36;;;;;;;5.03;1.40;;;10.30;65.10;;;;;;5025639;28;20041;-81
2021/05/04 02:59:02;;;;;;;1.88;0.70;;;10.20;67.00;;;;;;5010177;28;20499;-78
2021/05/04 03:01:28;;;;;;;8.23;1.67;;;10.10;68.30;;;;;;5024208;28;20257;-77
2021/05/04 03:03:53;;;;;;;4.82;1.15;;;9.90;70.30;;;;;;5013406;28;20032;-78
2021/05/04 03:06:19;;;;;;;4.97;0.88;;;9.90;71.50;;;;;;5016093;28;20037;-78
2021/05/04 03:08:45;;;;;;;5.60;1.08;;;9.90;71.60;;;;;;5009225;28;20517;-78
2021/05/04 03:11:10;;;;;;;1.48;1.00;;;9.70;72.50;;;;;;5030161;28;20029;-78
2021/05/04 03:13:36;;;;;;;4.78;1.33;;;9.70;73.60;;;;;;5026551;28;20492;-77
2021/05/04 03:16:01;;;;;;;3.00;1.20;;;9.60;74.30;;;;;;5016440;28;20142;-78
2021/05/04 03:18:27;;;;;;;3.20;0.70;;;9.60;73.60;;;;;;5025102;28;20396;-80
2021/05/04 03:20:53;;;;;;;0.95;0.80;;;9.60;74.80;;;;;;5010625;28;20492;-77
2021/05/04 03:23:21;;;;;;;1.50;1.05;;;9.50;76.10;;;;;;5007065;28;20053;-78
2021/05/04 03:25:46;;;;;;;2.17;1.80;;;9.40;77.10;;;;;;5028254;28;20127;-78
2021/05/04 03:28:13;;;;;;;3.20;1.10;;;9.40;77.50;;;;;;5016614;28;20113;-77
2021/05/04 03:30:38;;;;;;;4.78;1.13;;;9.40;78.70;;;;;;5014080;28;20056;-77
2021/05/04 03:33:04;;;;;;;0.77;0.60;;;9.20;79.40;;;;;;5027810;28;20084;-77
2021/05/04 03:35:30;;;;;;;1.70;0.90;;;9.20;79.80;;;;;;5023752;28;20037;-78
2021/05/04 03:37:56;;;;;;;1.92;0.85;;;9.20;80.40;;;;;;5029259;28;20033;-77
2021/05/04 03:40:21;;;;;;;4.28;1.10;;;9.20;81.20;;;;;;5037810;28;20044;-76
2021/05/04 03:42:47;;;;;;;2.90;0.73;;;9.00;82.20;;;;;;5032465;28;20075;-77
2021/05/04 03:45:13;;;;;;;11.48;1.08;;;9.00;83.60;;;;;;5005129;28;20037;-77
2021/05/04 03:47:42;;;;;;;0.77;0.68;;;8.90;83.30;;;;;;5010583;28;20021;-79
2021/05/04 03:50:10;;;;;;;0.70;0.70;;;9.00;84.10;;;;;;5022100;28;20568;-77
2021/05/04 03:52:35;;;;;;;2.33;1.02;;;9.00;84.10;;;;;;5028728;28;20033;-77
2021/05/04 03:55:01;;;;;;;3.47;1.30;;;8.90;84.90;;;;;;5015688;28;20028;-77
2021/05/04 03:57:27;;;;;;;2.55;0.40;;;8.80;85.80;;;;;;5008670;28;20078;-77
2021/05/04 03:59:52;;;;;;;1.42;1.17;;;8.80;86.20;;;;;;5007997;28;20037;-77
2021/05/04 04:02:18;;;;;;;1.95;1.75;;;8.80;86.40;;;;;;5024676;28;20253;-77
2021/05/04 04:04:43;;;;;;;2.08;1.15;;;8.70;86.80;;;;;;5012685;28;20472;-78
2021/05/04 04:07:09;;;;;;;2.88;1.27;;;8.70;87.30;;;;;;5004311;28;20567;-79
2021/05/04 04:09:34;;;;;;;0.63;0.57;;;8.60;87.40;;;;;;5015719;28;20621;-77
2021/05/04 04:12:00;;;;;;;1.38;0.80;;;8.60;87.90;;;;;;5007850;28;20254;-78
2021/05/04 04:14:26;;;;;;;3.08;1.50;;;8.70;87.90;;;;;;5046184;28;20029;-78
2021/05/04 04:16:51;;;;;;;1.33;1.23;;;8.60;88.00;;;;;;5025682;28;20114;-77
2021/05/04 04:19:17;;;;;;;2.10;1.20;;;8.70;87.80;;;;;;5028466;28;20537;-77
2021/05/04 04:21:42;;;;;;;11.15;1.00;;;8.60;88.00;;;;;;5022447;28;20020;-78
2021/05/04 04:24:08;;;;;;;0.65;0.65;;;8.60;88.00;;;;;;5029909;28;20020;-78
2021/05/04 04:26:34;;;;;;;3.47;1.33;;;8.60;88.70;;;;;;5005086;28;20655;-78
2021/05/04 04:28:59;;;;;;;4.00;1.60;;;8.60;88.70;;;;;;5013830;28;20392;-78
2021/05/04 04:31:25;;;;;;;2.03;1.25;;;8.60;87.50;;;;;;5026014;28;20043;-78
2021/05/04 04:33:50;;;;;;;1.15;1.00;;;8.60;87.50;;;;;;5009989;28;20050;-79
2021/05/04 04:36:16;;;;;;;2.95;1.35;;;8.70;87.70;;;;;;5031238;28;20040;-77
2021/05/04 04:38:41;;;;;;;1.42;0.82;;;8.70;88.00;;;;;;5010201;28;20036;-78
2021/05/04 04:41:07;;;;;;;3.60;1.65;;;8.60;88.40;;;;;;5030878;28;20074;-78
2021/05/04 04:43:32;;;;;;;3.55;1.00;;;8.60;88.10;;;;;;5014778;28;20488;-78
2021/05/04 04:45:58;;;;;;;1.58;0.82;;;8.60;88.60;;;;;;5014824;28;20033;-77
2021/05/04 04:48:24;;;;;;;2.03;0.60;;;8.60;89.00;;;;;;5031150;28;20040;-78
2021/05/04 04:50:49;;;;;;;2.17;1.08;;;8.60;89.00;;;;;;5010603;28;20059;-77
2021/05/04 04:53:15;;;;;;;0.68;0.68;;;8.60;89.20;;;;;;4323268;28;9999917;-78
2021/05/04 04:55:40;;;;;;;1.88;1.25;;;8.60;88.90;;;;;;5028682;28;20025;-77
2021/05/04 04:58:06;;;;;;;1.08;0.98;;;8.60;88.80;;;;;;5011612;28;20511;-78
2021/05/04 05:00:31;;;;;;;1.38;0.88;;;8.70;88.40;;;;;;5039539;28;20041;-79
2021/05/04 05:02:57;;;;;;;2.05;1.23;;;8.70;88.40;;;;;;5014618;28;20028;-77
2021/05/04 05:05:22;;;;;;;1.52;1.20;;;8.60;88.10;;;;;;5025471;28;20036;-80
2021/05/04 05:07:48;;;;;;;1.27;1.08;;;8.70;87.40;;;;;;5035421;28;20509;-80
2021/05/04 05:10:14;;;;;;;3.35;1.50;;;8.70;87.60;;;;;;5029967;28;20060;-80
2021/05/04 05:12:40;;;;;;;2.35;1.10;;;8.80;87.00;;;;;;5047100;28;20094;-80
2021/05/04 05:15:06;;;;;;;1.95;1.48;;;8.80;87.00;;;;;;5007111;28;20536;-78
2021/05/04 05:17:32;;;;;;;2.72;1.33;;;8.80;86.70;;;;;;5025459;28;20032;-78
2021/05/04 05:19:58;;;;;;;2.75;1.08;;;8.60;86.70;;;;;;5007489;28;20099;-78
2021/05/04 05:22:27;;;;;;;4.53;1.45;;;8.80;86.90;;;;;;5046731;28;20033;-78
2021/05/04 05:24:56;;;;;;;1.25;1.00;;;8.80;86.30;;;;;;5034830;28;20052;-78
2021/05/04 05:27:22;;;;;;;2.33;0.88;;;8.80;86.20;;;;;;5011912;28;20033;-78
2021/05/04 05:29:48;;;;;;;13.68;2.00;;;8.90;85.70;;;;;;5029302;28;20384;-78
2021/05/04 05:32:13;;;;;;;3.55;1.20;;;8.80;85.90;;;;;;5014928;28;20051;-78
2021/05/04 05:34:39;;;;;;;2.70;1.00;;;8.80;86.10;;;;;;5012002;28;20031;-77
2021/05/04 05:37:05;;;;;;;4.03;1.33;;;8.80;86.00;;;;;;5024317;28;20116;-78
2021/05/04 05:39:30;;;;;;;2.20;1.10;;;8.80;86.30;;;;;;5043939;28;20107;-78
2021/05/04 05:41:56;;;;;;;1.25;1.00;;;8.80;87.10;;;;;;5023184;28;20059;-78
2021/05/04 05:44:21;;;;;;;1.52;1.00;;;8.80;87.50;;;;;;5016895;28;20566;-78
2021/05/04 05:46:51;;;;;;;2.35;1.48;;;8.90;87.00;;;;;;5012826;28;20036;-79
2021/05/04 05:49:16;;;;;;;3.13;1.55;;;8.80;88.10;;;;;;5033803;28;20113;-79
2021/05/04 05:51:47;;;;;;;7.72;1.92;;;8.80;88.80;;;;;;5028254;28;20040;-79
2021/05/04 05:54:19;;;;;;;1.23;0.85;;;8.80;89.00;;;;;;5033642;28;20028;-79
2021/05/04 05:56:45;;;;;;;1.60;1.08;;;8.70;89.60;;;;;;5034117;28;20396;-79
2021/05/04 05:59:10;;;;;;;2.08;1.30;;;8.60;90.20;;;;;;5019062;28;20043;-79
2021/05/04 06:01:36;;;;;;;3.65;1.70;;;8.60;90.20;;;;;;5015667;28;20032;-79
2021/05/04 06:04:01;;;;;;;1.17;1.00;;;8.60;90.00;;;;;;5026206;28;20473;-79
2021/05/04 06:06:27;;;;;;;1.98;1.00;;;8.60;90.10;;;;;;5047773;28;20036;-79
2021/05/04 06:08:52;;;;;;;1.30;1.20;;;8.50;90.00;;;;;;5027544;28;20113;-79
2021/05/04 06:11:18;;;;;;;1.58;1.10;;;8.60;89.90;;;;;;5020036;28;20489;-79
2021/05/04 06:13:44;;;;;;;1.45;0.82;;;8.60;89.70;;;;;;5011824;28;20108;-79
2021/05/04 06:16:10;;;;;;;0.95;0.73;;;8.50;89.60;;;;;;5025819;28;20029;-79
2021/05/04 06:18:35;;;;;;;1.60;0.90;;;8.50;89.80;;;;;;5015474;28;20035;-79
2021/05/04 06:21:01;;;;;;;1.35;1.23;;;8.60;89.20;;;;;;5013556;28;20136;-79
2021/05/04 06:23:27;;;;;;;2.00;1.23;;;8.60;89.30;;;;;;5031409;28;20072;-79
2021/05/04 06:25:52;;;;;;;2.17;1.50;;;8.60;89.20;;;;;;5047851;28;20053;-78
2021/05/04 06:28:18;;;;;;;1.05;0.77;;;8.60;89.20;;;;;;5009584;28;20029;-78
2021/05/04 06:30:43;;;;;;;4.40;1.20;;;8.60;88.90;;;;;;5013909;28;20020;-78
2021/05/04 06:33:10;;;;;;;2.63;0.90;;;8.70;89.00;;;;;;5014129;28;20020;-78
2021/05/04 06:35:38;;;;;;;1.38;0.90;;;8.70;88.70;;;;;;5029578;28;20423;-78
2021/05/04 06:38:04;;;;;;;1.58;0.65;;;8.80;88.30;;;;;;5015056;28;20118;-78
2021/05/04 06:40:30;;;;;;;1.55;1.02;;;8.90;88.20;;;;;;5032279;28;20106;-78
2021/05/04 06:42:56;;;;;;;0.68;0.63;;;8.90;88.30;;;;;;5018799;28;20040;-80
2021/05/04 06:45:21;;;;;;;3.40;1.10;;;9.00;88.10;;;;;;5012896;28;20380;-80
2021/05/04 06:47:47;;;;;;;4.53;1.38;;;9.10;88.20;;;;;;5017031;28;20387;-80
2021/05/04 06:50:13;;;;;;;1.30;0.50;;;9.20;87.70;;;;;;5017506;28;20028;-79
2021/05/04 06:52:38;;;;;;;2.95;0.90;;;9.20;88.00;;;;;;5017268;28;20025;-80
2021/05/04 06:55:04;;;;;;;0.85;0.75;;;9.20;87.90;;;;;;5018299;28;20020;-80
2021/05/04 06:57:30;;;;;;;1.95;0.80;;;9.20;88.60;;;;;;5025494;28;20655;-80
2021/05/04 06:59:55;;;;;;;1.10;0.80;;;9.30;89.10;;;;;;5026033;28;20024;-79
2021/05/04 07:02:21;;;;;;;1.80;1.10;;;9.20;89.80;;;;;;5005121;28;20029;-80
2021/05/04 07:04:46;;;;;;;3.63;1.20;;;9.30;89.10;;;;;;5012864;28;20402;-80
2021/05/04 07:07:12;;;;;;;2.20;0.80;;;9.30;89.80;;;;;;5047924;28;20047;-80
2021/05/04 07:09:37;;;;;;;2.55;1.00;;;9.30;90.20;;;;;;5028708;28;20039;-80
2021/05/04 07:12:04;;;;;;;0.85;0.60;;;9.30;90.40;;;;;;5012095;28;20079;-80
2021/05/04 07:14:31;;;;;;;1.77;0.65;;;9.30;90.50;;;;;;5026275;28;20392;-80
2021/05/04 07:16:57;;;;;;;1.10;0.73;;;9.30;90.60;;;;;;5032484;28;20032;-80
2021/05/04 07:19:22;;;;;;;1.73;1.10;;;9.40;90.50;;;;;;5028052;28;20081;-80
2021/05/04 07:21:48;;;;;;;1.52;0.70;;;9.40;90.50;;;;;;5032468;28;20031;-80
2021/05/04 07:24:14;;;;;;;3.10;0.63;;;9.40;90.70;;;;;;5033594;28;20040;-80
2021/05/04 07:26:39;;;;;;;4.95;1.25;;;9.50;90.60;;;;;;5029834;28;20033;-80
2021/05/04 07:29:05;;;;;;;0.95;0.55;;;9.40;90.80;;;;;;5013394;28;20039;-80
2021/05/04 07:31:31;;;;;;;3.30;0.80;;;9.50;90.70;;;;;;5029844;28;20028;-80
2021/05/04 07:33:57;;;;;;;0.90;0.88;;;9.50;90.50;;;;;;5005423;28;20041;-80
2021/05/04 07:36:23;;;;;;;4.22;0.38;;;9.50;90.50;;;;;;5023391;28;20043;-80
2021/05/04 07:38:48;;;;;;;4.05;2.13;;;9.60;90.50;;;;;;5031511;28;20113;-80
2021/05/04 07:41:14;;;;;;;7.22;1.75;;;9.60;90.50;;;;;;5023057;28;20028;-80
2021/05/04 07:43:39;;;;;;;2.40;1.08;;;9.60;90.80;;;;;;5012671;28;20033;-80
2021/05/04 07:46:05;;;;;;;1.67;1.02;;;9.60;91.00;;;;;;5033519;28;20150;-80
2021/05/04 07:48:30;;;;;;;1.60;0.77;;;9.60;91.20;;;;;;5042568;28;20396;-80
2021/05/04 07:50:56;;;;;;;1.10;0.98;;;9.60;91.20;;;;;;5045934;28;20043;-80
2021/05/04 07:53:22;;;;;;;5.13;1.13;;;9.60;91.00;;;;;;5016182;28;20055;-81
2021/05/04 07:55:47;;;;;;;0.95;0.75;;;9.70;91.30;;;;;;5033471;28;20032;-81
2021/05/04 07:58:13;;;;;;;1.48;1.00;;;9.70;91.00;;;;;;5011583;28;20452;-80
2021/05/04 08:00:39;;;;;;;1.48;0.93;;;9.70;91.20;;;;;;5041118;28;20032;-80
2021/05/04 08:03:04;;;;;;;0.60;0.60;;;9.80;91.40;;;;;;5045454;28;20028;-80
2021/05/04 08:05:30;;;;;;;2.67;1.13;;;9.80;91.50;;;;;;5014007;28;20092;-81
2021/05/04 08:07:55;;;;;;;1.75;0.80;;;10.00;90.90;;;;;;5027755;28;20480;-81
2021/05/04 08:10:22;;;;;;;0.98;0.52;;;10.10;90.50;;;;;;5034050;28;20448;-80
2021/05/04 08:12:47;;;;;;;0.70;0.68;;;10.10;90.40;;;;;;5040010;28;20078;-80
2021/05/04 08:15:21;;;;;;;3.63;1.15;;;10.10;90.40;;;;;;5026608;28;20025;-80
2021/05/04 08:17:52;;;;;;;1.85;0.88;;;10.00;90.90;;;;;;5017451;28;20032;-80
2021/05/04 08:20:18;;;;;;;0.50;0.50;;;10.10;91.30;;;;;;5018673;28;20434;-80
2021/05/04 08:22:43;;;;;;;1.38;1.00;;;10.10;91.30;;;;;;5015169;28;20025;-80
2021/05/04 08:25:09;;;;;;;0.60;0.60;;;10.10;91.00;;;;;;5016347;28;20098;-80
2021/05/04 08:27:35;;;;;;;0.95;0.70;;;10.10;91.00;;;;;;5030929;28;20025;-80
2021/05/04 08:30:00;;;;;;;1.52;0.82;;;10.00;91.30;;;;;;5006755;28;20032;-80
2021/05/04 08:32:26;;;;;;;1.83;0.90;;;10.00;91.20;;;;;;5025823;28;20040;-80
2021/05/04 08:34:51;;;;;;;3.47;1.00;;;10.00;91.30;;;;;;5010147;28;20219;-80
2021/05/04 08:37:17;;;;;;;1.83;0.57;;;10.00;91.20;;;;;;5029294;28;20395;-80
2021/05/04 08:39:42;;;;;;;1.17;0.68;;;10.00;91.20;;;;;;5031503;28;20607;-80
2021/05/04 08:42:08;;;;;;;2.35;1.42;;;10.10;91.20;;;;;;5026260;28;20036;-80
2021/05/04 08:44:34;;;;;;;2.58;1.25;;;10.20;90.80;;;;;;5015100;28;20025;-80
2021/05/04 08:47:00;;;;;;;2.90;0.80;;;10.30;90.60;;;;;;5013439;28;20052;-80
2021/05/04 08:49:25;;;;;;;1.13;0.50;;;10.40;90.50;;;;;;5012736;28;20063;-81
2021/05/04 08:51:51;;;;;;;4.00;1.10;;;10.60;90.10;;;;;;5004295;28;20240;-81
2021/05/04 08:54:17;;;;;;;1.90;0.85;;;10.80;90.00;;;;;;5009677;28;20044;-80
2021/05/04 08:56:43;;;;;;;0.95;0.93;;;10.80;89.00;;;;;;5015317;28;20032;-80
2021/05/04 08:59:09;;;;;;;2.85;1.13;;;10.90;88.80;;;;;;5013914;28;20028;-80
2021/05/04 09:01:35;;;;;;;2.65;1.00;;;10.90;88.70;;;;;;5011771;28;20040;-80
2021/05/04 09:04:03;;;;;;;1.63;1.13;;;10.90;88.80;;;;;;5027783;28;20037;-80
2021/05/04 09:06:34;;;;;;;1.15;0.43;;;11.00;89.80;;;;;;5016752;28;20143;-80
2021/05/04 09:22:40;;;;;;;2.83;0.88;;;10.60;91.00;;;;;;5043994;28;20029;-81
2021/05/04 09:25:27;;;;;;;1.10;1.00;;;10.60;90.90;;;;;;5046167;28;20032;-80
2021/05/04 09:27:59;;;;;;;1.70;1.13;;;10.50;91.60;;;;;;5031493;28;20028;-80
2021/05/04 09:30:24;;;;;;;3.60;0.90;;;10.40;92.00;;;;;;5046083;28;20029;-79
2021/05/04 09:32:50;;;;;;;1.00;0.80;;;10.30;92.10;;;;;;5012808;28;20032;-80
2021/05/04 09:35:16;;;;;;;0.82;0.63;;;10.30;92.00;;;;;;5024016;28;20440;-80
2021/05/04 09:37:43;;;;;;;1.30;0.90;;;10.30;92.20;;;;;;5028722;28;20036;-80
2021/05/04 09:40:22;;;;;;;2.92;1.05;;;10.10;92.50;;;;;;5023002;28;20068;-80
2021/05/04 09:43:25;;;;;;;2.42;0.90;;;10.20;91.90;;;;;;5022597;28;20508;-80
2021/05/04 09:45:55;;;;;;;1.30;0.70;;;10.20;92.00;;;;;;5023341;28;20748;-81
2021/05/04 09:48:22;;;;;;;2.83;1.00;;;10.10;92.50;;;;;;5023096;28;20041;-81
2021/05/04 09:50:57;;;;;;;3.13;1.00;;;10.20;92.40;;;;;;5026356;28;20032;-82
2021/05/04 09:53:38;;;;;;;1.50;0.88;;;10.40;92.60;;;;;;5045392;28;20037;-81
2021/05/04 09:56:04;;;;;;;1.63;0.80;;;10.70;92.30;;;;;;5042070;28;20408;-81
2021/05/04 09:58:33;;;;;;;7.03;1.80;;;10.80;92.10;;;;;;5014326;28;20040;-82
2021/05/04 10:00:59;;;;;;;1.38;0.57;;;11.10;91.90;;;;;;5004648;28;20488;-82
2021/05/04 10:03:26;;;;;;;5.25;1.27;;;11.30;91.70;;;;;;5014483;28;20132;-81
2021/05/04 10:05:52;;;;;;;4.35;2.03;;;11.50;91.60;;;;;;5012683;28;20404;-81
2021/05/04 10:08:17;;;;;;;5.55;1.35;;;11.70;91.30;;;;;;5013754;28;20035;-81
2021/05/04 10:10:43;;;;;;;2.33;0.90;;;12.00;90.80;;;;;;5009685;28;20100;-80
2021/05/04 10:13:09;;;;;;;3.13;0.98;;;12.00;90.70;;;;;;5025962;28;20033;-80
2021/05/04 10:15:34;;;;;;;2.60;1.27;;;12.10;90.80;;;;;;5009599;28;20039;-80
2021/05/04 10:18:00;;;;;;;1.17;0.63;;;12.30;90.40;;;;;;5042075;28;20028;-80
2021/05/04 10:20:25;;;;;;;2.33;0.90;;;12.70;90.40;;;;;;5002658;28;20429;-80
2021/05/04 10:22:51;;;;;;;6.70;0.98;;;12.70;88.50;;;;;;5013764;28;20411;-80
2021/05/04 10:25:19;;;;;;;1.95;0.68;;;12.90;89.10;;;;;;5030205;28;20092;-79
2021/05/04 10:27:44;;;;;;;3.35;0.85;;;13.20;88.80;;;;;;5012731;28;20101;-79
2021/05/04 10:30:10;;;;;;;4.45;0.98;;;13.20;87.30;;;;;;5024497;28;20115;-79
2021/05/04 10:32:52;;;;;;;4.70;0.90;;;13.60;86.10;;;;;;5025182;28;20625;-79
2021/05/04 10:35:40;;;;;;;5.70;1.20;;;13.70;85.10;;;;;;5044194;28;20484;-79
2021/05/04 10:38:10;;;;;;;5.63;1.00;;;13.80;84.00;;;;;;5044082;28;20039;-79
2021/05/04 10:40:39;;;;;;;4.07;1.40;;;13.90;82.70;;;;;;5013398;28;20492;-79
2021/05/04 10:43:23;;;;;;;5.00;1.10;;;14.00;82.20;;;;;;5008219;28;20519;-79
2021/05/04 10:45:52;;;;;;;2.88;0.80;;;14.20;82.60;;;;;;5064314;28;20670;-79
2021/05/04 10:48:41;;;;;;;6.05;1.08;;;14.20;81.90;;;;;;5006862;28;20441;-79
2021/05/04 10:51:13;;;;;;;5.25;1.33;;;14.20;83.40;;;;;;5042800;28;20028;-80
2021/05/04 10:53:57;;;;;;;5.43;1.42;;;13.70;86.10;;;;;;5013359;28;20445;-80
2021/05/04 10:56:36;;;;;;;16.60;2.97;;;13.50;87.30;;;;;;5062398;28;20033;-81
2021/05/04 10:59:02;;;;;;;5.22;1.58;;;13.10;87.00;;;;;;5009585;28;20381;-80
2021/05/04 11:01:27;;;;;;;13.40;1.77;;;12.70;87.40;;;;;;5011667;28;20044;-82
2021/05/04 11:03:54;;;;;;;7.82;1.73;;;12.60;87.90;;;;;;5029127;28;20104;-81
2021/05/04 11:06:26;;;;;;;4.63;1.38;;;12.50;87.30;;;;;;5042161;28;20037;-81
2021/05/04 11:08:52;;;;;;;5.50;1.00;;;12.60;87.10;;;;;;5042041;28;20508;-82
2021/05/04 11:11:21;;;;;;;7.05;2.22;;;12.50;86.40;;;;;;5046216;28;20063;-81
2021/05/04 11:13:50;;;;;;;10.07;1.08;;;12.60;86.10;;;;;;5031818;28;20036;-81
2021/05/04 11:16:35;;;;;;;9.77;2.38;;;12.60;85.80;;;;;;5027199;28;20127;-80
2021/05/04 11:19:10;;;;;;;8.10;2.07;;;12.60;85.00;;;;;;4675524;28;10000153;-80
2021/05/04 11:21:43;;;;;;;4.50;1.13;;;12.70;84.80;;;;;;5037761;28;20345;-80
2021/05/04 11:24:10;;;;;;;10.68;2.17;;;12.90;84.50;;;;;;5021561;28;20034;-79
2021/05/04 11:26:58;;;;;;;2.78;0.98;;;13.10;84.50;;;;;;5029749;28;20037;-80
2021/05/04 11:29:37;;;;;;;11.65;2.83;;;13.20;84.30;;;;;;5039875;28;20044;-79
2021/05/04 11:32:29;;;;;;;6.07;1.75;;;13.50;83.20;;;;;;5029775;28;20098;-79
2021/05/04 11:34:57;;;;;;;4.85;1.30;;;14.10;81.20;;;;;;5052535;28;20091;-79
2021/05/04 11:37:23;;;;;;;11.27;1.33;;;14.30;78.80;;;;;;5010875;28;20033;-78
2021/05/04 11:39:52;;;;;;;10.40;1.80;;;14.50;75.70;;;;;;5065503;28;20059;-79
2021/05/04 11:42:26;;;;;;;8.38;1.92;;;14.40;75.40;;;;;;5047548;28;20040;-78
2021/05/04 11:44:52;;;;;;;6.43;1.02;;;14.60;74.50;;;;;;5045702;28;20028;-79
2021/05/04 11:47:27;;;;;;;11.98;2.38;;;14.70;74.30;;;;;;5013502;28;20039;-78
2021/05/04 11:50:04;;;;;;;5.97;0.90;;;14.90;71.40;;;;;;5032692;28;20029;-79
2021/05/04 11:52:29;;;;;;;4.38;1.13;;;15.00;72.30;;;;;;5029310;28;20043;-79
2021/05/04 11:55:08;;;;;;;5.38;1.58;;;14.90;74.10;;;;;;5023608;28;20033;-79
2021/05/04 11:57:34;;;;;;;6.93;0.95;;;14.60;73.20;;;;;;5029541;28;20464;-79
2021/05/04 12:00:00;;;;;;;6.15;1.25;;;14.60;71.90;;;;;;5017655;28;20421;-79
2021/05/04 12:02:31;;;;;;;5.28;1.08;;;14.70;72.00;;;;;;5010860;28;20035;-78
2021/05/04 12:04:57;;;;;;;5.32;1.17;;;14.90;70.30;;;;;;5035716;28;20377;-79
2021/05/04 12:07:45;;;;;;;6.90;1.45;;;14.60;69.30;;;;;;5024116;28;20136;-79
2021/05/04 12:10:14;;;;;;;3.15;0.93;;;14.90;70.50;;;;;;5032218;28;20029;-79
2021/05/04 12:12:53;;;;;;;5.63;1.23;;;14.50;69.40;;;;;;5042648;28;20036;-79
2021/05/04 12:15:26;;;;;;;9.43;1.63;;;14.40;68.60;;;;;;5027007;28;20040;-79
2021/05/04 12:17:55;;;;;;;9.68;1.73;;;14.30;71.00;;;;;;5031104;28;20036;-79
2021/05/04 12:20:22;;;;;;;7.65;1.05;;;14.10;71.20;;;;;;5031157;28;20389;-78
2021/05/04 12:22:51;;;;;;;10.77;1.42;;;13.90;70.60;;;;;;5016429;28;20097;-79
2021/05/04 12:25:22;;;;;;;4.28;1.27;;;13.60;70.60;;;;;;5028256;28;20527;-79
2021/05/04 12:27:48;;;;;;;5.35;1.42;;;13.70;70.20;;;;;;5028683;28;20025;-79
2021/05/04 12:30:24;;;;;;;10.68;0.98;;;13.90;69.90;;;;;;5014278;28;20028;-79
2021/05/04 12:32:50;;;;;;;5.25;1.73;;;14.20;69.30;;;;;;5039717;28;20115;-78
2021/05/04 12:35:33;;;;;;;7.55;1.20;;;14.20;68.80;;;;;;5028740;28;20531;-79
2021/05/04 12:38:27;;;;;;;8.07;1.00;;;14.40;68.20;;;;;;5008209;28;20044;-79
2021/05/04 12:40:54;;;;;;;5.00;1.40;;;14.60;69.20;;;;;;5032982;28;20162;-79
2021/05/04 12:43:23;;;;;;;8.77;1.85;;;14.40;67.90;;;;;;5043637;28;20367;-78
2021/05/04 12:46:07;;;;;;;8.85;0.90;;;14.10;67.30;;;;;;5015892;28;20032;-78
2021/05/04 12:48:35;;;;;;;9.65;2.03;;;14.10;67.60;;;;;;5044237;28;20057;-79
2021/05/04 12:51:08;;;;;;;7.25;2.03;;;13.90;66.70;;;;;;5013290;28;20040;-79
2021/05/04 12:53:36;;;;;;;7.68;1.45;;;13.80;66.30;;;;;;5010649;28;20496;-78
2021/05/04 12:56:08;;;;;;;3.95;1.45;;;13.70;66.90;;;;;;5013503;28;20047;-79
2021/05/04 12:58:33;;;;;;;3.92;1.00;;;13.70;66.20;;;;;;5042310;28;20470;-78
2021/05/04 13:01:06;;;;;;;5.10;1.63;;;13.60;65.50;;;;;;5014829;28;20039;-78
2021/05/04 13:03:46;;;;;;;5.53;1.15;;;13.60;66.50;;;;;;5030597;28;20136;-79
2021/05/04 13:06:16;;;;;;;4.40;0.85;;;13.90;66.40;;;;;;5013232;28;20032;-79